Time;durP1;ratioP1;P1;durP2;ratioP2;P2;SDS_P1;SDS_P2;PMS_P1;PMS_P2;Temp;Humidity;BMP_temperature;BMP_pressure;BME280_temperature;BME280_humidity;BME280_pressure;Samples;Min_cycle;Max_cycle;Signal;HPM_P1;HPM_P2
2022/03/14 00:00:47;;;;;;;1999.90;999.90;;;;;;;3.36;50.38;163293.00;4976467;28;20317;-68
2022/03/14 00:03:14;;;;;;;1999.90;999.90;;;;;;;3.18;51.89;163246.41;4961320;28;20510;-68
2022/03/14 00:05:42;;;;;;;1999.90;999.90;;;;;;;3.24;51.05;163260.16;4959366;28;20051;-68
2022/03/14 00:08:09;;;;;;;1999.90;999.90;;;;;;;3.30;51.83;163276.56;4957070;28;21021;-68
2022/03/14 00:10:36;;;;;;;1999.90;999.90;;;;;;;3.31;51.66;163279.34;4989720;28;20379;-68
2022/03/14 00:13:04;;;;;;;1999.90;999.90;;;;;;;3.20;51.69;163250.56;4963080;28;20070;-68
2022/03/14 00:15:33;;;;;;;1999.90;999.90;;;;;;;3.24;51.60;163260.16;4971226;28;20439;-68
2022/03/14 00:18:01;;;;;;;1999.90;999.90;;;;;;;3.11;52.85;163225.88;4975387;28;20054;-68
2022/03/14 00:20:28;;;;;;;1999.90;999.90;;;;;;;3.21;52.35;163251.91;4957260;28;20054;-68
2022/03/14 00:22:58;;;;;;;1999.90;999.90;;;;;;;3.24;51.77;163261.50;4966608;28;20059;-68
2022/03/14 00:25:26;;;;;;;1999.90;999.90;;;;;;;3.27;51.76;163268.38;4957658;28;20446;-68
2022/03/14 00:27:54;;;;;;;1999.90;999.90;;;;;;;3.12;52.03;163229.97;4981720;28;20543;-68
2022/03/14 00:30:21;;;;;;;1999.90;999.90;;;;;;;2.98;51.64;163191.66;4970539;28;20117;-68
2022/03/14 00:32:48;;;;;;;1999.90;999.90;;;;;;;2.93;52.07;163177.91;4971704;28;20058;-68
2022/03/14 00:35:16;;;;;;;1999.90;999.90;;;;;;;2.84;52.44;163153.28;4971251;28;20050;-68
2022/03/14 00:37:43;;;;;;;1999.90;999.90;;;;;;;2.70;53.79;163117.66;4961584;28;20077;-68
2022/03/14 00:40:10;;;;;;;1999.90;999.90;;;;;;;2.66;52.98;163106.69;4968782;28;20059;-69
2022/03/14 00:42:39;;;;;;;1999.90;999.90;;;;;;;2.60;52.76;163090.25;4972188;28;20058;-68
2022/03/14 00:45:06;;;;;;;1999.90;999.90;;;;;;;2.74;53.43;163128.63;4970322;28;20055;-68
2022/03/14 00:47:33;;;;;;;1999.90;999.90;;;;;;;2.84;52.99;163154.63;4966209;28;20065;-68
2022/03/14 00:49:59;;;;;;;1999.90;999.90;;;;;;;2.91;53.27;163173.81;4970894;28;20054;-68
2022/03/14 00:52:26;;;;;;;1999.90;999.90;;;;;;;2.93;53.31;163177.91;4966269;28;20443;-68
2022/03/14 00:54:54;;;;;;;1999.90;999.90;;;;;;;2.84;53.79;163154.63;4960129;28;20058;-68
2022/03/14 00:57:20;;;;;;;1999.90;999.90;;;;;;;2.86;53.94;163160.13;4976605;28;20057;-68
2022/03/14 00:59:47;;;;;;;1999.90;999.90;;;;;;;2.90;53.11;163169.69;4971979;28;20497;-68
2022/03/14 01:02:13;;;;;;;1999.90;999.90;;;;;;;2.81;53.42;163147.81;4969380;28;20059;-68
2022/03/14 01:04:40;;;;;;;1999.90;999.90;;;;;;;2.73;53.96;163124.50;4959954;28;20066;-68
2022/03/14 01:07:07;;;;;;;1999.90;999.90;;;;;;;2.71;53.89;163119.00;4967278;28;20051;-68
2022/03/14 01:09:34;;;;;;;1999.90;999.90;;;;;;;2.64;54.48;163102.56;4969847;28;20063;-68
2022/03/14 01:12:01;;;;;;;1999.90;999.90;;;;;;;2.59;55.32;163087.50;4970052;28;20260;-68
2022/03/14 01:14:28;;;;;;;1999.90;999.90;;;;;;;2.59;54.63;163087.50;4980191;28;20058;-68
2022/03/14 01:16:55;;;;;;;1999.90;999.90;;;;;;;2.34;54.50;163020.38;4964638;28;20069;-68
2022/03/14 01:19:21;;;;;;;1999.90;999.90;;;;;;;2.23;54.90;162991.63;4965006;28;20047;-68
2022/03/14 01:21:48;;;;;;;1999.90;999.90;;;;;;;2.54;53.87;163075.16;4964303;28;20336;-68
2022/03/14 01:24:15;;;;;;;1999.90;999.90;;;;;;;2.54;54.79;163075.16;4958454;28;20444;-68
2022/03/14 01:26:41;;;;;;;1999.90;999.90;;;;;;;2.59;55.29;163087.50;4985224;28;20046;-68
2022/03/14 01:29:08;;;;;;;1999.90;999.90;;;;;;;2.64;54.58;163101.22;4969469;28;20059;-68
2022/03/14 01:31:35;;;;;;;1999.90;999.90;;;;;;;2.63;54.76;163098.47;4971084;28;20050;-68
2022/03/14 01:34:02;;;;;;;1999.90;999.90;;;;;;;2.63;54.60;163098.47;4956639;28;20160;-68
2022/03/14 01:36:30;;;;;;;1999.90;999.90;;;;;;;2.68;54.75;163110.78;4969601;28;20462;-68
2022/03/14 01:38:58;;;;;;;1999.90;999.90;;;;;;;2.56;55.12;163080.69;4970397;28;20087;-68
2022/03/14 01:41:26;;;;;;;1999.90;999.90;;;;;;;2.52;54.99;163068.38;4967485;28;20066;-68
2022/03/14 01:43:53;;;;;;;1999.90;999.90;;;;;;;2.60;55.22;163090.25;4965111;28;20450;-68
2022/03/14 01:46:19;;;;;;;1999.90;999.90;;;;;;;2.58;54.45;163084.78;4949022;28;20130;-68
2022/03/14 01:48:46;;;;;;;1999.90;999.90;;;;;;;2.58;54.91;163084.78;4970663;28;20054;-68
2022/03/14 01:51:14;;;;;;;1999.90;999.90;;;;;;;2.52;54.42;163069.72;4959138;28;20054;-68
2022/03/14 01:53:41;;;;;;;1999.90;999.90;;;;;;;2.43;55.03;163045.06;4983564;28;20055;-68
2022/03/14 01:56:12;;;;;;;1999.90;999.90;;;;;;;2.43;55.98;163046.41;4969294;28;20074;-68
2022/03/14 01:58:39;;;;;;;1999.90;999.90;;;;;;;2.51;55.48;163066.97;4969393;28;20054;-68
2022/03/14 02:01:06;;;;;;;1999.90;999.90;;;;;;;2.30;54.74;163010.81;4976634;28;20711;-68
2022/03/14 02:03:33;;;;;;;1999.90;999.90;;;;;;;2.18;54.87;162977.97;4960950;28;20382;-68
2022/03/14 02:05:59;;;;;;;1999.90;999.90;;;;;;;2.36;55.42;163025.88;4968619;28;20400;-68
2022/03/14 02:08:26;;;;;;;1999.90;999.90;;;;;;;2.39;55.28;163035.47;4962447;28;20268;-68
2022/03/14 02:10:53;;;;;;;1999.90;999.90;;;;;;;2.12;55.81;162962.91;4968495;28;20065;-68
2022/03/14 02:13:19;;;;;;;1999.90;999.90;;;;;;;1.96;55.72;162920.44;4976770;28;20042;-68
2022/03/14 02:15:46;;;;;;;1999.90;999.90;;;;;;;1.96;55.34;162919.09;4967026;28;20461;-68
2022/03/14 02:18:13;;;;;;;1999.90;999.90;;;;;;;2.15;55.22;162969.75;4975949;28;20285;-68
2022/03/14 02:20:39;;;;;;;1999.90;999.90;;;;;;;2.27;55.77;163003.97;4972651;28;20376;-68
2022/03/14 02:23:06;;;;;;;1999.90;999.90;;;;;;;2.39;55.31;163035.47;4975881;28;20046;-68
2022/03/14 02:25:34;;;;;;;1999.90;999.90;;;;;;;2.39;56.29;163035.47;4979494;28;20262;-68
2022/03/14 02:28:02;;;;;;;1999.90;999.90;;;;;;;2.21;55.44;162987.53;4972340;28;20054;-68
2022/03/14 02:30:28;;;;;;;1999.90;999.90;;;;;;;2.02;54.96;162936.84;4965032;28;20054;-68
2022/03/14 02:32:57;;;;;;;1999.90;999.90;;;;;;;1.97;55.41;162923.19;4970501;28;20055;-68
2022/03/14 02:35:24;;;;;;;1999.90;999.90;;;;;;;2.01;55.54;162934.16;4970390;28;20051;-68
2022/03/14 02:37:51;;;;;;;1999.90;999.90;;;;;;;2.22;55.52;162988.88;4965579;28;20061;-68
2022/03/14 02:40:17;;;;;;;1999.90;999.90;;;;;;;2.29;56.03;163008.06;4972719;28;20053;-68
2022/03/14 02:42:44;;;;;;;1999.90;999.90;;;;;;;2.38;56.05;163031.34;4973574;28;20062;-68
2022/03/14 02:45:11;;;;;;;1999.90;999.90;;;;;;;2.22;55.33;162988.88;4967353;28;20058;-68
2022/03/14 02:47:38;;;;;;;1999.90;999.90;;;;;;;2.13;55.75;162964.25;4964907;28;20059;-68
2022/03/14 02:50:05;;;;;;;1999.90;999.90;;;;;;;2.19;55.66;162982.06;4960310;28;20431;-68
2022/03/14 02:52:32;;;;;;;1999.90;999.90;;;;;;;2.15;55.71;162969.75;4966747;28;20498;-68
2022/03/14 02:54:59;;;;;;;1999.90;999.90;;;;;;;2.16;55.00;162972.47;4965300;28;20056;-68
2022/03/14 02:57:26;;;;;;;1999.90;999.90;;;;;;;1.97;55.37;162923.19;4963555;28;20066;-68
2022/03/14 02:59:54;;;;;;;1999.90;999.90;;;;;;;2.12;55.44;162962.91;4963965;28;20061;-68
2022/03/14 03:02:22;;;;;;;1999.90;999.90;;;;;;;2.08;55.26;162951.94;4957178;28;20109;-68
2022/03/14 03:04:50;;;;;;;1999.90;999.90;;;;;;;1.96;55.90;162919.09;4981434;28;20054;-68
2022/03/14 03:07:19;;;;;;;1999.90;999.90;;;;;;;1.73;57.02;162858.88;4954060;28;20054;-68
2022/03/14 03:09:46;;;;;;;1999.90;999.90;;;;;;;1.91;57.09;162906.78;4972229;28;20050;-68
2022/03/14 03:12:13;;;;;;;1999.90;999.90;;;;;;;1.98;57.06;162925.94;4962309;28;20054;-68
2022/03/14 03:14:41;;;;;;;1999.90;999.90;;;;;;;1.99;57.18;162928.66;4969753;28;20043;-68
2022/03/14 03:17:08;;;;;;;1999.90;999.90;;;;;;;2.07;57.11;162950.56;4983269;28;20062;-68
2022/03/14 03:19:34;;;;;;;1999.90;999.90;;;;;;;2.09;56.20;162956.03;4971904;28;20058;-68
2022/03/14 03:22:01;;;;;;;1999.90;999.90;;;;;;;2.01;56.52;162934.16;4973982;28;20316;-68
2022/03/14 03:24:28;;;;;;;1999.90;999.90;;;;;;;2.08;56.52;162951.94;4967206;28;20255;-68
2022/03/14 03:26:54;;;;;;;1999.90;999.90;;;;;;;1.78;56.37;162871.19;5005137;28;20053;-68
2022/03/14 03:29:22;;;;;;;1999.90;999.90;;;;;;;1.78;56.36;162872.53;4962703;28;20519;-68
2022/03/14 03:31:49;;;;;;;1999.90;999.90;;;;;;;1.76;56.87;162868.41;4965457;28;20352;-68
2022/03/14 03:34:16;;;;;;;1999.90;999.90;;;;;;;1.78;56.57;162871.19;4965604;28;20723;-67
2022/03/14 03:36:43;;;;;;;1999.90;999.90;;;;;;;1.64;56.74;162834.19;4961208;28;20066;-68
2022/03/14 03:39:09;;;;;;;1999.90;999.90;;;;;;;1.94;55.91;162916.31;4969720;28;20104;-68
2022/03/14 03:41:38;;;;;;;1999.90;999.90;;;;;;;1.95;56.44;162917.72;4958943;28;20359;-68
2022/03/14 03:44:06;;;;;;;1999.90;999.90;;;;;;;2.11;56.10;162961.53;4973261;28;20058;-68
2022/03/14 03:46:33;;;;;;;1999.90;999.90;;;;;;;2.09;56.32;162954.69;4961557;28;20355;-69
2022/03/14 03:48:59;;;;;;;1999.90;999.90;;;;;;;2.14;56.23;162967.00;4971799;28;20456;-68
2022/03/14 03:51:26;;;;;;;1999.90;999.90;;;;;;;2.06;56.32;162947.81;4970001;28;20468;-68
2022/03/14 03:53:53;;;;;;;1999.90;999.90;;;;;;;2.06;56.24;162947.81;4961259;28;20058;-68
2022/03/14 03:56:19;;;;;;;1999.90;999.90;;;;;;;2.08;55.89;162951.94;4968341;28;20458;-68
2022/03/14 03:58:46;;;;;;;1999.90;999.90;;;;;;;2.05;56.05;162945.06;4961421;28;20113;-68
2022/03/14 04:01:19;;;;;;;1999.90;999.90;;;;;;;2.13;55.84;162964.25;4978384;28;20046;-68
2022/03/14 04:03:48;;;;;;;1999.90;999.90;;;;;;;2.18;56.35;162977.97;4960889;28;20047;-68
2022/03/14 04:06:20;;;;;;;1999.90;999.90;;;;;;;1.92;56.79;162909.47;4970579;28;20479;-68
2022/03/14 04:08:47;;;;;;;1999.90;999.90;;;;;;;1.75;57.01;162864.31;4964377;28;20054;-68
2022/03/14 04:11:13;;;;;;;1999.90;999.90;;;;;;;2.00;56.79;162931.41;4968567;28;20062;-68
2022/03/14 04:13:40;;;;;;;1999.90;999.90;;;;;;;2.09;57.28;162956.03;4979171;28;20046;-68
2022/03/14 04:16:07;;;;;;;1999.90;999.90;;;;;;;2.03;57.58;162938.25;4969557;28;20050;-68
2022/03/14 04:18:34;;;;;;;1999.90;999.90;;;;;;;1.99;57.42;162928.66;4977014;28;20534;-68
2022/03/14 04:21:00;;;;;;;1999.90;999.90;;;;;;;1.91;57.36;162908.13;4962020;28;20061;-68
2022/03/14 04:23:29;;;;;;;1999.90;999.90;;;;;;;1.96;57.46;162920.44;4966599;28;20058;-68
2022/03/14 04:25:56;;;;;;;1999.90;999.90;;;;;;;1.96;57.00;162920.44;4970471;28;20284;-68
2022/03/14 04:28:23;;;;;;;1999.90;999.90;;;;;;;1.97;56.89;162921.84;4972299;28;20050;-68
2022/03/14 04:30:49;;;;;;;1999.90;999.90;;;;;;;1.88;56.78;162898.56;4970732;28;20051;-68
2022/03/14 04:33:16;;;;;;;1999.90;999.90;;;;;;;1.91;57.94;162908.13;4966342;28;20062;-68
2022/03/14 04:35:43;;;;;;;1999.90;999.90;;;;;;;1.94;57.49;162914.97;4970577;28;20483;-69
2022/03/14 04:38:09;;;;;;;1999.90;999.90;;;;;;;1.98;57.34;162924.53;4965893;28;20051;-68
2022/03/14 04:40:36;;;;;;;1999.90;999.90;;;;;;;1.95;57.76;162917.72;4964834;28;20058;-67
2022/03/14 04:43:05;;;;;;;1999.90;999.90;;;;;;;1.99;57.63;162928.66;4982002;28;20063;-68
2022/03/14 04:45:32;;;;;;;1999.90;999.90;;;;;;;2.02;58.20;162936.84;4978635;28;20053;-68
2022/03/14 04:47:59;;;;;;;1999.90;999.90;;;;;;;1.90;57.80;162904.00;4973144;28;20062;-67
2022/03/14 04:50:25;;;;;;;1999.90;999.90;;;;;;;1.83;57.70;162886.25;4961212;28;20085;-68
2022/03/14 04:52:52;;;;;;;1999.90;999.90;;;;;;;1.90;58.05;162904.00;4968511;28;20427;-68
2022/03/14 04:55:19;;;;;;;1999.90;999.90;;;;;;;1.92;58.01;162909.47;4970840;28;20062;-68
2022/03/14 04:57:45;;;;;;;1999.90;999.90;;;;;;;1.85;57.73;162891.69;4956924;28;20061;-68
2022/03/14 05:00:12;;;;;;;1999.90;999.90;;;;;;;1.89;58.62;162901.25;4968495;28;20054;-68
2022/03/14 05:02:39;;;;;;;1999.90;999.90;;;;;;;1.93;58.73;162913.56;4951446;28;20512;-68
2022/03/14 05:05:10;;;;;;;1999.90;999.90;;;;;;;1.94;58.34;162914.97;4965176;28;20058;-68
2022/03/14 05:07:38;;;;;;;1999.90;999.90;;;;;;;1.96;58.33;162919.09;4958835;28;20471;-68
2022/03/14 05:10:06;;;;;;;1999.90;999.90;;;;;;;1.88;58.16;162898.56;4975129;28;20053;-67
2022/03/14 05:12:34;;;;;;;1999.90;999.90;;;;;;;1.82;58.08;162882.13;4982801;28;20108;-68
2022/03/14 05:15:01;;;;;;;1999.90;999.90;;;;;;;1.83;58.21;162884.84;4949223;28;20071;-68
2022/03/14 05:17:30;;;;;;;1999.90;999.90;;;;;;;1.71;58.95;162854.75;4963296;28;20061;-68
2022/03/14 05:19:57;;;;;;;1999.90;999.90;;;;;;;1.71;59.19;162854.75;4948922;28;20084;-68
2022/03/14 05:22:24;;;;;;;1999.90;999.90;;;;;;;1.86;58.88;162894.47;4967731;28;20693;-68
2022/03/14 05:24:51;;;;;;;1999.90;999.90;;;;;;;1.91;58.89;162906.78;4961594;28;20223;-68
2022/03/14 05:27:18;;;;;;;1999.90;999.90;;;;;;;2.01;58.65;162934.16;4968268;28;20047;-68
2022/03/14 05:29:44;;;;;;;1999.90;999.90;;;;;;;1.94;57.74;162914.97;4967808;28;20657;-68
2022/03/14 05:32:11;;;;;;;1999.90;999.90;;;;;;;1.90;58.79;162904.00;4951313;28;20081;-68
2022/03/14 05:34:38;;;;;;;1999.90;999.90;;;;;;;1.93;59.03;162913.56;4960742;28;20061;-68
2022/03/14 05:37:04;;;;;;;1999.90;999.90;;;;;;;1.99;58.96;162928.66;4960580;28;20475;-68
2022/03/14 05:39:31;;;;;;;1999.90;999.90;;;;;;;1.92;58.53;162909.47;4967555;28;20205;-68
2022/03/14 05:41:58;;;;;;;1999.90;999.90;;;;;;;2.06;57.98;162947.81;4962948;28;20418;-68
2022/03/14 05:44:25;;;;;;;1999.90;999.90;;;;;;;2.08;57.53;162953.31;4968174;28;20071;-69
2022/03/14 05:46:52;;;;;;;1999.90;999.90;;;;;;;2.18;57.05;162977.97;4970490;28;20755;-68
2022/03/14 05:49:19;;;;;;;1999.90;999.90;;;;;;;2.11;57.75;162961.53;4969236;28;20075;-68
2022/03/14 05:51:46;;;;;;;1999.90;999.90;;;;;;;2.29;57.46;163008.06;4980244;28;20081;-68
2022/03/14 05:54:13;;;;;;;1999.90;999.90;;;;;;;2.46;56.40;163054.63;4976339;28;20663;-68
2022/03/14 05:56:40;;;;;;;1999.90;999.90;;;;;;;2.55;56.73;163077.94;4971942;28;20043;-68
2022/03/14 05:59:08;;;;;;;1999.90;999.90;;;;;;;2.64;56.42;163101.22;4943533;28;20392;-68
2022/03/14 06:01:35;;;;;;;1999.90;999.90;;;;;;;2.77;55.59;163135.44;4968472;28;20070;-68
2022/03/14 06:04:02;;;;;;;1999.90;999.90;;;;;;;2.75;55.36;163129.97;4970921;28;20038;-68
2022/03/14 06:06:28;;;;;;;1999.90;999.90;;;;;;;2.96;54.49;163186.13;4964393;28;20047;-68
2022/03/14 06:08:55;;;;;;;1999.90;999.90;;;;;;;3.13;54.22;163232.72;4979754;28;20054;-68
2022/03/14 06:11:22;;;;;;;1999.90;999.90;;;;;;;3.28;53.70;163271.13;4963779;28;20364;-68
2022/03/14 06:13:48;;;;;;;1999.90;999.90;;;;;;;3.29;52.96;163275.22;4966341;28;20133;-68
2022/03/14 06:16:15;;;;;;;1999.90;999.90;;;;;;;3.52;52.62;163336.88;4957157;28;20070;-68
2022/03/14 06:18:42;;;;;;;1999.90;999.90;;;;;;;3.53;52.47;163339.63;4972353;28;20104;-69
2022/03/14 06:21:09;;;;;;;1999.90;999.90;;;;;;;3.63;51.85;163364.28;4974026;28;20061;-69
2022/03/14 06:23:36;;;;;;;1999.90;999.90;;;;;;;3.96;50.98;163453.44;4965918;28;20077;-67
2022/03/14 06:26:03;;;;;;;1999.90;999.90;;;;;;;4.06;50.04;163479.44;4966583;28;20051;-68
2022/03/14 06:28:29;;;;;;;1999.90;999.90;;;;;;;4.31;49.80;163546.66;4953227;28;20061;-68
2022/03/14 06:30:56;;;;;;;1999.90;999.90;;;;;;;4.42;49.23;163575.44;4967556;28;20054;-68
2022/03/14 06:33:23;;;;;;;1999.90;999.90;;;;;;;4.50;48.58;163596.03;4966098;28;20078;-68
2022/03/14 06:35:50;;;;;;;1999.90;999.90;;;;;;;4.59;47.98;163622.06;4980220;28;20050;-68
2022/03/14 06:38:17;;;;;;;1999.90;999.90;;;;;;;4.62;47.57;163627.59;4980729;28;20455;-67
2022/03/14 06:40:43;;;;;;;1999.90;999.90;;;;;;;4.72;47.22;163656.38;4951448;28;20059;-67
2022/03/14 06:43:13;;;;;;;1999.90;999.90;;;;;;;5.05;46.92;163744.19;4980622;28;20529;-67
2022/03/14 06:45:41;;;;;;;1999.90;999.90;;;;;;;5.47;46.03;163855.34;4968693;28;20069;-68
2022/03/14 06:48:07;;;;;;;1999.90;999.90;;;;;;;5.44;45.02;163848.47;4968991;28;20335;-68
2022/03/14 06:50:36;;;;;;;1999.90;999.90;;;;;;;5.68;44.87;163910.25;4949913;28;20564;-67
2022/03/14 06:53:03;;;;;;;1999.90;999.90;;;;;;;5.62;44.44;163895.16;4967116;28;20100;-68
2022/03/14 06:55:30;;;;;;;1999.90;999.90;;;;;;;5.55;43.75;163877.34;4960867;28;20272;-67
2022/03/14 06:57:57;;;;;;;1999.90;999.90;;;;;;;5.75;42.38;163930.84;4956169;28;20062;-68
2022/03/14 07:00:24;;;;;;;1999.90;999.90;;;;;;;5.68;41.82;163911.63;4968905;28;20053;-67
2022/03/14 07:02:50;;;;;;;1999.90;999.90;;;;;;;5.62;41.20;163895.16;4960166;28;20251;-68
2022/03/14 07:05:23;;;;;;;1999.90;999.90;;;;;;;5.95;40.41;163984.34;4969166;28;20046;-68
2022/03/14 07:07:50;;;;;;;1999.90;999.90;;;;;;;6.33;40.33;164084.69;4953567;28;20130;-67
2022/03/14 07:10:17;;;;;;;1999.90;999.90;;;;;;;6.51;39.54;164132.75;4963262;28;20490;-68
2022/03/14 07:12:46;;;;;;;1999.90;999.90;;;;;;;6.91;38.79;164239.91;4964282;28;20070;-67
2022/03/14 07:15:15;;;;;;;1999.90;999.90;;;;;;;6.85;38.48;164224.78;4960287;28;20468;-68
2022/03/14 07:17:41;;;;;;;1999.90;999.90;;;;;;;6.95;38.97;164250.91;4968343;28;20361;-68
2022/03/14 07:20:10;;;;;;;1999.90;999.90;;;;;;;7.26;37.31;164333.31;4958921;28;20053;-68
2022/03/14 07:22:56;;;;;;;1999.90;999.90;;;;;;;7.25;36.00;164329.19;4954135;28;20054;-68
2022/03/14 07:25:28;;;;;;;1999.90;999.90;;;;;;;7.09;36.10;164286.63;4954876;28;20058;-68
2022/03/14 07:27:58;;;;;;;1999.90;999.90;;;;;;;7.19;35.55;164314.06;4968058;28;20494;-67
2022/03/14 07:30:25;;;;;;;1999.90;999.90;;;;;;;7.69;35.32;164448.75;4966404;28;20058;-68
2022/03/14 07:32:53;;;;;;;1999.90;999.90;;;;;;;7.86;35.01;164492.75;4970601;28;20047;-68
2022/03/14 07:35:20;;;;;;;1999.90;999.90;;;;;;;8.07;35.41;164550.50;4968781;28;20058;-68
2022/03/14 07:37:48;;;;;;;1999.90;999.90;;;;;;;8.41;34.65;164641.28;4955363;28;20055;-68
2022/03/14 07:40:15;;;;;;;1999.90;999.90;;;;;;;8.01;34.08;164532.59;4964424;28;20062;-67
2022/03/14 07:42:44;;;;;;;1999.90;999.90;;;;;;;8.43;33.14;164645.41;4958914;28;20059;-68
2022/03/14 07:45:13;;;;;;;1999.90;999.90;;;;;;;8.80;32.85;164745.84;4977994;28;20062;-68
2022/03/14 07:47:40;;;;;;;1999.90;999.90;;;;;;;9.01;32.01;164800.88;4968276;28;20096;-68
2022/03/14 07:50:09;;;;;;;1999.90;999.90;;;;;;;9.28;31.96;164873.78;4959246;28;20047;-68
2022/03/14 07:52:36;;;;;;;1999.90;999.90;;;;;;;9.13;31.41;164832.53;4964208;28;20062;-68
2022/03/14 07:55:09;;;;;;;1999.90;999.90;;;;;;;9.57;31.21;164949.47;4962126;28;20051;-68
2022/03/14 07:57:37;;;;;;;1999.90;999.90;;;;;;;9.93;29.59;165047.22;4968399;28;20055;-68
2022/03/14 08:00:08;;;;;;;1999.90;999.90;;;;;;;9.92;30.19;165043.09;4959859;28;20375;-68
2022/03/14 08:02:37;;;;;;;1999.90;999.90;;;;;;;10.06;29.72;165081.63;4958963;28;20058;-68
2022/03/14 08:05:06;;;;;;;1999.90;999.90;;;;;;;9.98;28.70;165059.63;4964713;28;20050;-68
2022/03/14 08:07:34;;;;;;;1999.90;999.90;;;;;;;9.73;28.98;164992.16;4964921;28;20889;-68
2022/03/14 08:10:09;;;;;;;1999.90;999.90;;;;;;;10.06;29.02;165081.63;4967743;28;20384;-68
2022/03/14 08:12:49;;;;;;;1999.90;999.90;;;;;;;10.27;28.22;165138.09;4952804;28;20118;-68
2022/03/14 08:15:32;;;;;;;1999.90;999.90;;;;;;;10.77;27.95;165270.34;4968434;28;20086;-68
2022/03/14 08:18:07;;;;;;;1999.90;999.90;;;;;;;10.49;27.35;165195.97;4959127;28;20459;-68
2022/03/14 08:20:37;;;;;;;1999.90;999.90;;;;;;;10.54;26.78;165211.13;4961873;28;20069;-68
2022/03/14 08:23:05;;;;;;;1999.90;999.90;;;;;;;11.08;26.00;165354.38;4974418;28;20042;-68
2022/03/14 08:25:36;;;;;;;1999.90;999.90;;;;;;;11.07;26.07;165351.59;4968203;28;20058;-68
2022/03/14 08:28:03;;;;;;;1999.90;999.90;;;;;;;10.86;25.80;165295.13;4967578;28;20062;-68
2022/03/14 08:30:30;;;;;;;1999.90;999.90;;;;;;;11.54;25.52;165477.00;4976360;28;20444;-69
2022/03/14 08:32:58;;;;;;;1999.90;999.90;;;;;;;11.39;25.95;165437.06;4970801;28;20287;-68
2022/03/14 08:35:26;;;;;;;1999.90;999.90;;;;;;;11.22;25.58;165392.91;4968318;28;20058;-68
2022/03/14 08:37:53;;;;;;;1999.90;999.90;;;;;;;10.00;26.33;165066.50;4977481;28;20050;-69
2022/03/14 08:40:22;;;;;;;1999.90;999.90;;;;;;;10.41;26.96;165175.31;4964408;28;20051;-68
2022/03/14 08:42:51;;;;;;;1999.90;999.90;;;;;;;10.47;26.47;165191.84;4974217;28;20059;-68
2022/03/14 08:45:19;;;;;;;1999.90;999.90;;;;;;;10.83;26.54;165288.25;4961048;28;20120;-68
2022/03/14 08:47:47;;;;;;;1999.90;999.90;;;;;;;11.61;25.52;165497.69;4969364;28;20074;-68
2022/03/14 08:50:14;;;;;;;1999.90;999.90;;;;;;;11.22;25.69;165391.56;4970430;28;20384;-68
2022/03/14 08:52:45;;;;;;;1999.90;999.90;;;;;;;11.66;25.93;165508.72;4969778;28;20098;-68
2022/03/14 08:55:12;;;;;;;1999.90;999.90;;;;;;;11.02;26.00;165337.84;4970902;28;20347;-69
2022/03/14 08:57:40;;;;;;;1999.90;999.90;;;;;;;12.05;25.80;165613.50;4969739;28;20370;-68
2022/03/14 09:00:08;;;;;;;1999.90;999.90;;;;;;;11.98;24.45;165596.97;4975212;28;20046;-68
2022/03/14 09:02:34;;;;;;;1999.90;999.90;;;;;;;12.10;24.60;165627.25;4957528;28;20062;-68
2022/03/14 09:05:01;;;;;;;1999.90;999.90;;;;;;;13.25;24.02;165936.19;4968324;28;20059;-66
2022/03/14 09:07:30;;;;;;;1999.90;999.90;;;;;;;13.25;23.27;165934.78;4968155;28;20058;-67
2022/03/14 09:10:03;;;;;;;1999.90;999.90;;;;;;;12.20;23.92;165654.84;4973846;28;20055;-67
2022/03/14 09:12:32;;;;;;;1999.90;999.90;;;;;;;12.50;23.74;165734.81;4960091;28;20252;-67
2022/03/14 09:15:00;;;;;;;1999.90;999.90;;;;;;;13.45;23.42;165988.66;4959306;28;20124;-67
2022/03/14 09:17:27;;;;;;;1999.90;999.90;;;;;;;13.55;22.58;166016.25;4972203;28;20059;-67
2022/03/14 09:19:54;;;;;;;1999.90;999.90;;;;;;;13.39;23.51;165974.84;4966645;28;20084;-67
2022/03/14 09:22:22;;;;;;;1999.90;999.90;;;;;;;14.04;22.17;166148.72;4974336;28;20279;-66
2022/03/14 09:24:48;;;;;;;1999.90;999.90;;;;;;;14.20;22.13;166190.09;4969077;28;20066;-66
2022/03/14 09:27:15;;;;;;;1999.90;999.90;;;;;;;14.23;23.21;166198.38;4971379;28;20330;-67
2022/03/14 09:29:42;;;;;;;1999.90;999.90;;;;;;;14.88;21.82;166372.41;4965209;28;20069;-67
2022/03/14 09:32:09;;;;;;;1999.90;999.90;;;;;;;15.49;22.03;166538.13;4956125;28;20055;-67
2022/03/14 09:34:37;;;;;;;1999.90;999.90;;;;;;;14.54;21.92;166281.22;4972068;28;20076;-68
2022/03/14 09:37:03;;;;;;;1999.90;999.90;;;;;;;14.44;23.10;166255.03;4973551;28;20061;-69
2022/03/14 09:39:32;;;;;;;1999.90;999.90;;;;;;;14.01;22.61;166140.44;4970390;28;20050;-68
2022/03/14 09:42:01;;;;;;;1999.90;999.90;;;;;;;14.49;22.07;166267.44;4958274;28;20368;-68
2022/03/14 09:44:29;;;;;;;1999.90;999.90;;;;;;;13.92;22.54;166115.63;4965884;28;20141;-68
2022/03/14 09:47:00;;;;;;;1999.90;999.90;;;;;;;14.12;22.92;166168.06;4957455;28;20062;-69
2022/03/14 09:49:28;;;;;;;1999.90;999.90;;;;;;;14.54;22.06;166281.22;4978549;28;20054;-68
2022/03/14 09:51:55;;;;;;;1999.90;999.90;;;;;;;14.76;22.29;166340.66;4969941;28;20359;-69
2022/03/14 09:54:22;;;;;;;1999.90;999.90;;;;;;;14.91;21.89;166382.06;4961415;28;20059;-68
2022/03/14 09:56:57;;;;;;;1999.90;999.90;;;;;;;14.72;21.83;166329.59;4965601;28;20050;-69
2022/03/14 09:59:24;;;;;;;1999.90;999.90;;;;;;;15.13;21.95;166441.44;4945032;28;20054;-69
2022/03/14 10:01:52;;;;;;;1999.90;999.90;;;;;;;15.01;21.82;166408.31;4973973;28;20058;-68
2022/03/14 10:04:19;;;;;;;1999.90;999.90;;;;;;;15.23;21.57;166466.28;4960040;28;20138;-68
2022/03/14 10:06:45;;;;;;;1999.90;999.90;;;;;;;15.01;20.64;166408.31;4972680;28;20055;-67
2022/03/14 10:09:12;;;;;;;1999.90;999.90;;;;;;;15.26;21.47;166474.63;4961004;28;20356;-68
2022/03/14 10:11:40;;;;;;;1999.90;999.90;;;;;;;15.28;21.15;166480.13;4955972;28;20054;-68
2022/03/14 10:14:11;;;;;;;1999.90;999.90;;;;;;;14.87;21.11;166371.06;4965801;28;20395;-67
2022/03/14 10:16:38;;;;;;;1999.90;999.90;;;;;;;15.35;21.59;166498.06;4957756;28;20046;-68
2022/03/14 10:19:07;;;;;;;1999.90;999.90;;;;;;;14.88;21.84;166373.78;4972252;28;20047;-68
2022/03/14 10:21:39;;;;;;;1999.90;999.90;;;;;;;14.00;22.23;166137.66;4954441;28;20058;-68
2022/03/14 10:24:08;;;;;;;1999.90;999.90;;;;;;;14.55;23.13;166285.38;4961742;28;20414;-68
2022/03/14 10:26:39;;;;;;;1999.90;999.90;;;;;;;13.88;22.58;166104.56;4956180;28;20054;-68
2022/03/14 10:29:13;;;;;;;1999.90;999.90;;;;;;;14.67;22.00;166317.19;4972147;28;20051;-67
2022/03/14 10:31:45;;;;;;;1999.90;999.90;;;;;;;14.12;22.42;166168.06;4957794;28;20727;-68
2022/03/14 10:34:15;;;;;;;1999.90;999.90;;;;;;;13.77;22.91;166074.19;4970256;28;20051;-68
2022/03/14 10:36:53;;;;;;;1999.90;999.90;;;;;;;13.85;22.48;166096.28;4977876;28;20067;-67
2022/03/14 10:39:26;;;;;;;1999.90;999.90;;;;;;;15.05;21.79;166419.38;4954359;28;20377;-68
2022/03/14 10:42:03;;;;;;;1999.90;999.90;;;;;;;15.13;22.64;166440.09;4967574;28;20749;-68
2022/03/14 10:44:48;;;;;;;1999.90;999.90;;;;;;;15.66;21.28;166582.31;4966715;28;20439;-68
2022/03/14 10:47:15;;;;;;;1999.90;999.90;;;;;;;14.11;22.05;166166.63;4965048;28;20078;-68
2022/03/14 10:49:43;;;;;;;1999.90;999.90;;;;;;;13.74;23.22;166068.69;4958418;28;20054;-68
2022/03/14 10:52:13;;;;;;;1999.90;999.90;;;;;;;14.78;22.67;166347.56;4969569;28;20117;-67
2022/03/14 10:54:42;;;;;;;1999.90;999.90;;;;;;;15.08;22.07;166427.66;4957582;28;20444;-68